sensor_id;sensor_type;location;lat;lon;timestamp;P1;durP1;ratioP1;P2;durP2;ratioP2
59930;SDS011;45790;51.538;6.736;2024-02-16T00:01:26;4.90;;;2.28;;
59930;SDS011;45790;51.538;6.736;2024-02-16T00:03:51;4.13;;;1.77;;
59930;SDS011;45790;51.538;6.736;2024-02-16T00:06:16;7.83;;;2.73;;
59930;SDS011;45790;51.538;6.736;2024-02-16T00:08:41;6.60;;;2.40;;
59930;SDS011;45790;51.538;6.736;2024-02-16T00:11:07;8.13;;;2.50;;
59930;SDS011;45790;51.538;6.736;2024-02-16T00:13:32;8.02;;;2.70;;
59930;SDS011;45790;51.538;6.736;2024-02-16T00:15:57;10.10;;;3.03;;
59930;SDS011;45790;51.538;6.736;2024-02-16T00:18:22;11.23;;;3.28;;
59930;SDS011;45790;51.538;6.736;2024-02-16T00:20:47;10.50;;;3.10;;
59930;SDS011;45790;51.538;6.736;2024-02-16T00:23:13;9.32;;;2.90;;
59930;SDS011;45790;51.538;6.736;2024-02-16T00:25:38;9.48;;;2.53;;
59930;SDS011;45790;51.538;6.736;2024-02-16T00:28:04;10.50;;;2.75;;
59930;SDS011;45790;51.538;6.736;2024-02-16T00:30:30;9.20;;;2.85;;
59930;SDS011;45790;51.538;6.736;2024-02-16T00:32:55;11.98;;;3.70;;
59930;SDS011;45790;51.538;6.736;2024-02-16T00:35:21;8.07;;;3.55;;
59930;SDS011;45790;51.538;6.736;2024-02-16T00:37:46;12.35;;;4.00;;
59930;SDS011;45790;51.538;6.736;2024-02-16T00:40:11;11.57;;;4.25;;
59930;SDS011;45790;51.538;6.736;2024-02-16T00:42:37;10.10;;;3.65;;
59930;SDS011;45790;51.538;6.736;2024-02-16T00:45:03;8.85;;;3.35;;
59930;SDS011;45790;51.538;6.736;2024-02-16T00:47:31;10.27;;;4.35;;
59930;SDS011;45790;51.538;6.736;2024-02-16T00:49:56;8.37;;;3.40;;
59930;SDS011;45790;51.538;6.736;2024-02-16T00:52:22;6.65;;;3.13;;
59930;SDS011;45790;51.538;6.736;2024-02-16T00:54:47;9.50;;;3.00;;
59930;SDS011;45790;51.538;6.736;2024-02-16T00:57:13;9.23;;;2.92;;
59930;SDS011;45790;51.538;6.736;2024-02-16T00:59:39;9.80;;;2.78;;
59930;SDS011;45790;51.538;6.736;2024-02-16T01:02:04;6.43;;;2.65;;
59930;SDS011;45790;51.538;6.736;2024-02-16T01:04:29;7.43;;;2.60;;
59930;SDS011;45790;51.538;6.736;2024-02-16T01:06:55;6.07;;;2.10;;
59930;SDS011;45790;51.538;6.736;2024-02-16T01:09:20;4.65;;;1.98;;
59930;SDS011;45790;51.538;6.736;2024-02-16T01:11:45;4.88;;;1.92;;
59930;SDS011;45790;51.538;6.736;2024-02-16T01:14:11;5.80;;;1.85;;
59930;SDS011;45790;51.538;6.736;2024-02-16T01:16:36;6.78;;;2.10;;
59930;SDS011;45790;51.538;6.736;2024-02-16T01:19:01;4.82;;;1.85;;
59930;SDS011;45790;51.538;6.736;2024-02-16T01:21:26;6.78;;;2.17;;
59930;SDS011;45790;51.538;6.736;2024-02-16T01:23:51;6.00;;;1.83;;
59930;SDS011;45790;51.538;6.736;2024-02-16T01:26:17;4.15;;;1.70;;
59930;SDS011;45790;51.538;6.736;2024-02-16T01:28:42;5.67;;;1.80;;
59930;SDS011;45790;51.538;6.736;2024-02-16T01:31:07;6.43;;;1.88;;
59930;SDS011;45790;51.538;6.736;2024-02-16T01:33:35;4.00;;;1.60;;
59930;SDS011;45790;51.538;6.736;2024-02-16T01:36:00;5.63;;;1.50;;
59930;SDS011;45790;51.538;6.736;2024-02-16T01:38:25;4.93;;;1.70;;
59930;SDS011;45790;51.538;6.736;2024-02-16T01:40:51;3.47;;;1.70;;
59930;SDS011;45790;51.538;6.736;2024-02-16T01:43:22;4.50;;;1.60;;
59930;SDS011;45790;51.538;6.736;2024-02-16T01:45:47;6.63;;;1.88;;
59930;SDS011;45790;51.538;6.736;2024-02-16T01:48:15;4.72;;;1.60;;
59930;SDS011;45790;51.538;6.736;2024-02-16T01:50:44;5.28;;;1.65;;
59930;SDS011;45790;51.538;6.736;2024-02-16T01:53:11;6.57;;;1.80;;
59930;SDS011;45790;51.538;6.736;2024-02-16T01:55:36;4.38;;;1.48;;
59930;SDS011;45790;51.538;6.736;2024-02-16T01:58:01;4.57;;;1.63;;
59930;SDS011;45790;51.538;6.736;2024-02-16T02:00:27;5.72;;;1.80;;
59930;SDS011;45790;51.538;6.736;2024-02-16T02:02:53;6.77;;;1.40;;
59930;SDS011;45790;51.538;6.736;2024-02-16T02:05:18;5.47;;;1.67;;
59930;SDS011;45790;51.538;6.736;2024-02-16T02:07:43;3.60;;;1.63;;
59930;SDS011;45790;51.538;6.736;2024-02-16T02:10:08;6.82;;;1.88;;
59930;SDS011;45790;51.538;6.736;2024-02-16T02:12:34;5.82;;;2.28;;
59930;SDS011;45790;51.538;6.736;2024-02-16T02:14:59;6.37;;;2.20;;
59930;SDS011;45790;51.538;6.736;2024-02-16T02:17:24;5.87;;;2.70;;
59930;SDS011;45790;51.538;6.736;2024-02-16T02:19:49;7.00;;;2.47;;
59930;SDS011;45790;51.538;6.736;2024-02-16T02:22:18;8.27;;;2.43;;
59930;SDS011;45790;51.538;6.736;2024-02-16T02:24:44;7.18;;;2.60;;
59930;SDS011;45790;51.538;6.736;2024-02-16T02:27:09;5.72;;;2.17;;
59930;SDS011;45790;51.538;6.736;2024-02-16T02:29:35;8.10;;;2.33;;
59930;SDS011;45790;51.538;6.736;2024-02-16T02:32:00;7.03;;;2.05;;
59930;SDS011;45790;51.538;6.736;2024-02-16T02:34:25;8.90;;;2.45;;
59930;SDS011;45790;51.538;6.736;2024-02-16T02:36:50;12.18;;;3.15;;
59930;SDS011;45790;51.538;6.736;2024-02-16T02:39:16;12.27;;;3.70;;
59930;SDS011;45790;51.538;6.736;2024-02-16T02:41:41;13.05;;;3.42;;
59930;SDS011;45790;51.538;6.736;2024-02-16T02:44:06;8.18;;;2.95;;
59930;SDS011;45790;51.538;6.736;2024-02-16T02:46:31;7.10;;;3.07;;
59930;SDS011;45790;51.538;6.736;2024-02-16T02:48:57;13.68;;;3.80;;
59930;SDS011;45790;51.538;6.736;2024-02-16T02:51:22;8.87;;;3.07;;
59930;SDS011;45790;51.538;6.736;2024-02-16T02:53:47;8.40;;;3.50;;
59930;SDS011;45790;51.538;6.736;2024-02-16T02:56:12;9.87;;;3.33;;
59930;SDS011;45790;51.538;6.736;2024-02-16T02:58:40;7.47;;;3.33;;
59930;SDS011;45790;51.538;6.736;2024-02-16T03:01:05;11.25;;;3.08;;
59930;SDS011;45790;51.538;6.736;2024-02-16T03:03:33;8.82;;;2.80;;
59930;SDS011;45790;51.538;6.736;2024-02-16T03:05:58;7.47;;;3.40;;
59930;SDS011;45790;51.538;6.736;2024-02-16T03:08:23;6.95;;;2.85;;
59930;SDS011;45790;51.538;6.736;2024-02-16T03:10:49;6.33;;;2.30;;
59930;SDS011;45790;51.538;6.736;2024-02-16T03:13:14;6.95;;;2.42;;
59930;SDS011;45790;51.538;6.736;2024-02-16T03:15:43;5.13;;;1.90;;
59930;SDS011;45790;51.538;6.736;2024-02-16T03:18:08;6.05;;;2.20;;
59930;SDS011;45790;51.538;6.736;2024-02-16T03:20:34;4.82;;;2.08;;
59930;SDS011;45790;51.538;6.736;2024-02-16T03:22:59;6.63;;;2.08;;
59930;SDS011;45790;51.538;6.736;2024-02-16T03:25:24;5.57;;;2.20;;
59930;SDS011;45790;51.538;6.736;2024-02-16T03:27:50;5.97;;;2.17;;
59930;SDS011;45790;51.538;6.736;2024-02-16T03:30:16;6.93;;;2.20;;
59930;SDS011;45790;51.538;6.736;2024-02-16T03:32:41;5.47;;;2.35;;
59930;SDS011;45790;51.538;6.736;2024-02-16T03:35:06;6.87;;;2.43;;
59930;SDS011;45790;51.538;6.736;2024-02-16T03:37:31;6.78;;;2.80;;
59930;SDS011;45790;51.538;6.736;2024-02-16T03:39:57;6.83;;;2.77;;
59930;SDS011;45790;51.538;6.736;2024-02-16T03:42:22;6.38;;;2.53;;
59930;SDS011;45790;51.538;6.736;2024-02-16T03:44:48;7.82;;;3.38;;
59930;SDS011;45790;51.538;6.736;2024-02-16T03:47:13;8.60;;;2.97;;
59930;SDS011;45790;51.538;6.736;2024-02-16T03:49:39;6.72;;;2.70;;
59930;SDS011;45790;51.538;6.736;2024-02-16T03:52:04;7.07;;;2.58;;
59930;SDS011;45790;51.538;6.736;2024-02-16T03:54:29;5.93;;;2.50;;
59930;SDS011;45790;51.538;6.736;2024-02-16T03:56:55;5.93;;;2.20;;
59930;SDS011;45790;51.538;6.736;2024-02-16T03:59:21;4.47;;;1.92;;
59930;SDS011;45790;51.538;6.736;2024-02-16T04:01:46;5.53;;;1.80;;
59930;SDS011;45790;51.538;6.736;2024-02-16T04:04:12;5.78;;;2.00;;
59930;SDS011;45790;51.538;6.736;2024-02-16T04:06:37;7.95;;;1.73;;
59930;SDS011;45790;51.538;6.736;2024-02-16T04:09:03;3.45;;;1.52;;
59930;SDS011;45790;51.538;6.736;2024-02-16T04:11:28;3.83;;;1.73;;
59930;SDS011;45790;51.538;6.736;2024-02-16T04:13:55;6.47;;;2.08;;
59930;SDS011;45790;51.538;6.736;2024-02-16T04:16:20;5.00;;;1.63;;
59930;SDS011;45790;51.538;6.736;2024-02-16T04:18:47;4.60;;;1.70;;
59930;SDS011;45790;51.538;6.736;2024-02-16T04:21:12;4.90;;;1.77;;
59930;SDS011;45790;51.538;6.736;2024-02-16T04:23:37;4.43;;;1.73;;
59930;SDS011;45790;51.538;6.736;2024-02-16T04:26:02;4.27;;;1.73;;
59930;SDS011;45790;51.538;6.736;2024-02-16T04:28:29;3.88;;;1.85;;
59930;SDS011;45790;51.538;6.736;2024-02-16T04:30:54;5.20;;;1.87;;
59930;SDS011;45790;51.538;6.736;2024-02-16T04:33:22;4.60;;;2.00;;
59930;SDS011;45790;51.538;6.736;2024-02-16T04:35:47;4.47;;;1.90;;
59930;SDS011;45790;51.538;6.736;2024-02-16T04:38:13;9.32;;;2.53;;
59930;SDS011;45790;51.538;6.736;2024-02-16T04:40:38;7.22;;;2.88;;
59930;SDS011;45790;51.538;6.736;2024-02-16T04:43:03;8.88;;;3.45;;
59930;SDS011;45790;51.538;6.736;2024-02-16T04:45:29;8.50;;;2.83;;
59930;SDS011;45790;51.538;6.736;2024-02-16T04:47:55;8.40;;;3.05;;
59930;SDS011;45790;51.538;6.736;2024-02-16T04:50:20;9.57;;;3.25;;
59930;SDS011;45790;51.538;6.736;2024-02-16T04:52:45;10.10;;;4.20;;
59930;SDS011;45790;51.538;6.736;2024-02-16T04:55:11;9.10;;;4.03;;
59930;SDS011;45790;51.538;6.736;2024-02-16T04:57:36;8.73;;;4.40;;
59930;SDS011;45790;51.538;6.736;2024-02-16T05:00:02;14.65;;;4.80;;
59930;SDS011;45790;51.538;6.736;2024-02-16T05:02:27;10.82;;;4.50;;
59930;SDS011;45790;51.538;6.736;2024-02-16T05:04:52;11.13;;;4.10;;
59930;SDS011;45790;51.538;6.736;2024-02-16T05:07:17;12.77;;;3.87;;
59930;SDS011;45790;51.538;6.736;2024-02-16T05:09:42;10.60;;;3.53;;
59930;SDS011;45790;51.538;6.736;2024-02-16T05:12:09;13.63;;;3.60;;
59930;SDS011;45790;51.538;6.736;2024-02-16T05:14:35;10.85;;;3.45;;
59930;SDS011;45790;51.538;6.736;2024-02-16T05:17:00;8.45;;;3.05;;
59930;SDS011;45790;51.538;6.736;2024-02-16T05:19:25;15.23;;;3.50;;
59930;SDS011;45790;51.538;6.736;2024-02-16T05:21:50;10.07;;;3.50;;
59930;SDS011;45790;51.538;6.736;2024-02-16T05:24:16;10.80;;;3.37;;
59930;SDS011;45790;51.538;6.736;2024-02-16T05:26:41;18.65;;;4.38;;
59930;SDS011;45790;51.538;6.736;2024-02-16T05:29:06;16.23;;;4.30;;
59930;SDS011;45790;51.538;6.736;2024-02-16T05:31:31;15.45;;;4.15;;
59930;SDS011;45790;51.538;6.736;2024-02-16T05:33:56;12.50;;;3.73;;
59930;SDS011;45790;51.538;6.736;2024-02-16T05:36:22;20.50;;;4.18;;
59930;SDS011;45790;51.538;6.736;2024-02-16T05:38:52;13.20;;;3.40;;
59930;SDS011;45790;51.538;6.736;2024-02-16T05:41:19;12.23;;;4.22;;
59930;SDS011;45790;51.538;6.736;2024-02-16T05:43:45;12.05;;;4.43;;
59930;SDS011;45790;51.538;6.736;2024-02-16T05:46:13;14.98;;;4.38;;
59930;SDS011;45790;51.538;6.736;2024-02-16T05:48:38;11.98;;;4.22;;
59930;SDS011;45790;51.538;6.736;2024-02-16T05:51:05;12.25;;;4.38;;
59930;SDS011;45790;51.538;6.736;2024-02-16T05:53:30;15.65;;;4.65;;
59930;SDS011;45790;51.538;6.736;2024-02-16T05:55:56;9.50;;;4.10;;
59930;SDS011;45790;51.538;6.736;2024-02-16T05:58:21;11.60;;;4.40;;
59930;SDS011;45790;51.538;6.736;2024-02-16T06:00:46;15.35;;;4.10;;
59930;SDS011;45790;51.538;6.736;2024-02-16T06:03:13;11.48;;;4.07;;
59930;SDS011;45790;51.538;6.736;2024-02-16T06:05:38;15.40;;;3.95;;
59930;SDS011;45790;51.538;6.736;2024-02-16T06:08:05;13.70;;;4.05;;
59930;SDS011;45790;51.538;6.736;2024-02-16T06:10:30;15.05;;;4.05;;
59930;SDS011;45790;51.538;6.736;2024-02-16T06:12:56;12.75;;;4.15;;
59930;SDS011;45790;51.538;6.736;2024-02-16T06:15:21;16.27;;;4.30;;
59930;SDS011;45790;51.538;6.736;2024-02-16T06:17:47;12.83;;;4.40;;
59930;SDS011;45790;51.538;6.736;2024-02-16T06:20:13;17.67;;;4.32;;
59930;SDS011;45790;51.538;6.736;2024-02-16T06:22:39;10.77;;;3.85;;
59930;SDS011;45790;51.538;6.736;2024-02-16T06:25:04;13.77;;;4.05;;
59930;SDS011;45790;51.538;6.736;2024-02-16T06:27:30;14.63;;;3.72;;
59930;SDS011;45790;51.538;6.736;2024-02-16T06:29:56;15.70;;;3.75;;
59930;SDS011;45790;51.538;6.736;2024-02-16T06:32:21;10.00;;;3.40;;
59930;SDS011;45790;51.538;6.736;2024-02-16T06:34:46;12.45;;;3.70;;
59930;SDS011;45790;51.538;6.736;2024-02-16T06:37:11;8.63;;;3.40;;
59930;SDS011;45790;51.538;6.736;2024-02-16T06:39:36;8.57;;;3.33;;
59930;SDS011;45790;51.538;6.736;2024-02-16T06:42:02;7.80;;;3.27;;
59930;SDS011;45790;51.538;6.736;2024-02-16T06:44:28;8.52;;;2.80;;
59930;SDS011;45790;51.538;6.736;2024-02-16T06:46:54;8.77;;;3.00;;
59930;SDS011;45790;51.538;6.736;2024-02-16T06:49:19;7.60;;;3.17;;
59930;SDS011;45790;51.538;6.736;2024-02-16T06:51:44;7.67;;;3.07;;
59930;SDS011;45790;51.538;6.736;2024-02-16T06:54:10;16.20;;;3.53;;
59930;SDS011;45790;51.538;6.736;2024-02-16T06:56:35;11.48;;;3.25;;
59930;SDS011;45790;51.538;6.736;2024-02-16T06:59:00;8.18;;;3.10;;
59930;SDS011;45790;51.538;6.736;2024-02-16T07:01:26;14.38;;;3.88;;
59930;SDS011;45790;51.538;6.736;2024-02-16T07:03:52;20.40;;;4.47;;
59930;SDS011;45790;51.538;6.736;2024-02-16T07:06:17;19.58;;;4.32;;
59930;SDS011;45790;51.538;6.736;2024-02-16T07:08:43;12.20;;;4.03;;
59930;SDS011;45790;51.538;6.736;2024-02-16T07:11:09;11.23;;;3.90;;
59930;SDS011;45790;51.538;6.736;2024-02-16T07:13:36;23.15;;;4.47;;
59930;SDS011;45790;51.538;6.736;2024-02-16T07:16:02;14.73;;;4.15;;
59930;SDS011;45790;51.538;6.736;2024-02-16T07:18:28;14.80;;;4.40;;
59930;SDS011;45790;51.538;6.736;2024-02-16T07:20:55;16.58;;;4.63;;
59930;SDS011;45790;51.538;6.736;2024-02-16T07:23:20;12.47;;;4.63;;
59930;SDS011;45790;51.538;6.736;2024-02-16T07:25:45;16.48;;;4.72;;
59930;SDS011;45790;51.538;6.736;2024-02-16T07:28:11;16.23;;;4.72;;
59930;SDS011;45790;51.538;6.736;2024-02-16T07:30:36;15.18;;;5.35;;
59930;SDS011;45790;51.538;6.736;2024-02-16T07:33:04;17.10;;;5.35;;
59930;SDS011;45790;51.538;6.736;2024-02-16T07:35:30;14.38;;;4.65;;
59930;SDS011;45790;51.538;6.736;2024-02-16T07:37:55;14.93;;;4.90;;
59930;SDS011;45790;51.538;6.736;2024-02-16T07:40:20;11.18;;;4.28;;
59930;SDS011;45790;51.538;6.736;2024-02-16T07:42:46;15.43;;;4.65;;
59930;SDS011;45790;51.538;6.736;2024-02-16T07:45:11;10.20;;;4.00;;
59930;SDS011;45790;51.538;6.736;2024-02-16T07:47:37;16.92;;;4.13;;
59930;SDS011;45790;51.538;6.736;2024-02-16T07:50:02;11.25;;;3.70;;
59930;SDS011;45790;51.538;6.736;2024-02-16T07:52:28;12.13;;;3.70;;
59930;SDS011;45790;51.538;6.736;2024-02-16T07:54:53;9.90;;;3.35;;
59930;SDS011;45790;51.538;6.736;2024-02-16T07:57:19;10.95;;;3.88;;
59930;SDS011;45790;51.538;6.736;2024-02-16T07:59:44;13.07;;;3.83;;
59930;SDS011;45790;51.538;6.736;2024-02-16T08:02:09;10.30;;;3.70;;
59930;SDS011;45790;51.538;6.736;2024-02-16T08:04:35;8.82;;;3.67;;
59930;SDS011;45790;51.538;6.736;2024-02-16T08:07:00;11.32;;;3.67;;
59930;SDS011;45790;51.538;6.736;2024-02-16T08:09:26;7.88;;;4.22;;
59930;SDS011;45790;51.538;6.736;2024-02-16T08:11:51;12.43;;;4.82;;
59930;SDS011;45790;51.538;6.736;2024-02-16T08:14:16;11.15;;;4.90;;
59930;SDS011;45790;51.538;6.736;2024-02-16T08:16:41;15.70;;;5.03;;
59930;SDS011;45790;51.538;6.736;2024-02-16T08:19:07;10.38;;;4.47;;
59930;SDS011;45790;51.538;6.736;2024-02-16T08:21:32;10.07;;;4.27;;
59930;SDS011;45790;51.538;6.736;2024-02-16T08:23:57;14.03;;;5.27;;
59930;SDS011;45790;51.538;6.736;2024-02-16T08:26:22;10.77;;;4.68;;
59930;SDS011;45790;51.538;6.736;2024-02-16T08:28:47;13.70;;;4.38;;
59930;SDS011;45790;51.538;6.736;2024-02-16T08:31:16;15.35;;;4.18;;
59930;SDS011;45790;51.538;6.736;2024-02-16T08:33:43;12.38;;;3.72;;
59930;SDS011;45790;51.538;6.736;2024-02-16T08:36:08;8.63;;;3.75;;
59930;SDS011;45790;51.538;6.736;2024-02-16T08:38:33;11.47;;;4.03;;
59930;SDS011;45790;51.538;6.736;2024-02-16T08:40:58;8.05;;;3.70;;
59930;SDS011;45790;51.538;6.736;2024-02-16T08:43:24;11.77;;;4.43;;
59930;SDS011;45790;51.538;6.736;2024-02-16T08:45:50;9.07;;;3.53;;
59930;SDS011;45790;51.538;6.736;2024-02-16T08:48:16;10.45;;;3.88;;
59930;SDS011;45790;51.538;6.736;2024-02-16T08:50:41;9.20;;;3.30;;
59930;SDS011;45790;51.538;6.736;2024-02-16T08:53:06;14.15;;;3.60;;
59930;SDS011;45790;51.538;6.736;2024-02-16T08:55:32;10.65;;;3.15;;
59930;SDS011;45790;51.538;6.736;2024-02-16T08:57:57;10.60;;;3.17;;
59930;SDS011;45790;51.538;6.736;2024-02-16T09:00:23;10.20;;;3.20;;
59930;SDS011;45790;51.538;6.736;2024-02-16T09:02:50;12.18;;;3.35;;
59930;SDS011;45790;51.538;6.736;2024-02-16T09:05:15;10.43;;;3.78;;
59930;SDS011;45790;51.538;6.736;2024-02-16T09:07:41;9.32;;;3.35;;
59930;SDS011;45790;51.538;6.736;2024-02-16T09:10:06;10.27;;;3.13;;
59930;SDS011;45790;51.538;6.736;2024-02-16T09:12:32;12.07;;;3.92;;
59930;SDS011;45790;51.538;6.736;2024-02-16T09:14:58;11.07;;;3.63;;
59930;SDS011;45790;51.538;6.736;2024-02-16T09:17:23;7.38;;;3.15;;
59930;SDS011;45790;51.538;6.736;2024-02-16T09:19:48;7.90;;;3.33;;
59930;SDS011;45790;51.538;6.736;2024-02-16T09:22:13;7.60;;;3.23;;
59930;SDS011;45790;51.538;6.736;2024-02-16T09:24:39;7.60;;;3.00;;
59930;SDS011;45790;51.538;6.736;2024-02-16T09:27:05;10.60;;;3.45;;
59930;SDS011;45790;51.538;6.736;2024-02-16T09:29:31;8.20;;;2.97;;
59930;SDS011;45790;51.538;6.736;2024-02-16T09:31:58;10.02;;;3.10;;
59930;SDS011;45790;51.538;6.736;2024-02-16T09:34:23;9.63;;;3.40;;
59930;SDS011;45790;51.538;6.736;2024-02-16T09:36:48;9.90;;;3.17;;
59930;SDS011;45790;51.538;6.736;2024-02-16T09:39:13;7.67;;;3.10;;
59930;SDS011;45790;51.538;6.736;2024-02-16T09:41:42;13.63;;;3.55;;
59930;SDS011;45790;51.538;6.736;2024-02-16T09:44:08;13.75;;;3.58;;
59930;SDS011;45790;51.538;6.736;2024-02-16T09:46:35;11.15;;;3.58;;
59930;SDS011;45790;51.538;6.736;2024-02-16T09:49:03;8.90;;;3.53;;
59930;SDS011;45790;51.538;6.736;2024-02-16T09:51:29;9.35;;;3.67;;
59930;SDS011;45790;51.538;6.736;2024-02-16T09:53:54;10.77;;;3.55;;
59930;SDS011;45790;51.538;6.736;2024-02-16T09:56:22;11.68;;;4.28;;
59930;SDS011;45790;51.538;6.736;2024-02-16T09:58:49;13.27;;;4.28;;
59930;SDS011;45790;51.538;6.736;2024-02-16T10:01:17;9.70;;;3.90;;
59930;SDS011;45790;51.538;6.736;2024-02-16T10:03:43;11.73;;;3.90;;
59930;SDS011;45790;51.538;6.736;2024-02-16T10:06:09;8.93;;;3.60;;
59930;SDS011;45790;51.538;6.736;2024-02-16T10:08:34;8.15;;;3.33;;
59930;SDS011;45790;51.538;6.736;2024-02-16T10:11:00;9.20;;;2.88;;
59930;SDS011;45790;51.538;6.736;2024-02-16T10:13:26;6.57;;;2.67;;
59930;SDS011;45790;51.538;6.736;2024-02-16T10:15:51;7.67;;;2.70;;
59930;SDS011;45790;51.538;6.736;2024-02-16T10:18:16;6.93;;;2.30;;
59930;SDS011;45790;51.538;6.736;2024-02-16T10:20:44;6.55;;;2.50;;
59930;SDS011;45790;51.538;6.736;2024-02-16T10:23:10;8.95;;;2.85;;
59930;SDS011;45790;51.538;6.736;2024-02-16T10:25:38;7.25;;;2.78;;
59930;SDS011;45790;51.538;6.736;2024-02-16T10:28:06;9.23;;;2.35;;
59930;SDS011;45790;51.538;6.736;2024-02-16T10:30:34;6.78;;;2.15;;
59930;SDS011;45790;51.538;6.736;2024-02-16T10:32:59;8.80;;;2.58;;
59930;SDS011;45790;51.538;6.736;2024-02-16T10:35:25;6.13;;;2.33;;
59930;SDS011;45790;51.538;6.736;2024-02-16T10:37:51;12.30;;;2.67;;
59930;SDS011;45790;51.538;6.736;2024-02-16T10:40:17;6.90;;;2.90;;
59930;SDS011;45790;51.538;6.736;2024-02-16T10:42:45;6.53;;;2.67;;
59930;SDS011;45790;51.538;6.736;2024-02-16T10:45:10;7.15;;;2.90;;
59930;SDS011;45790;51.538;6.736;2024-02-16T10:47:38;7.97;;;2.95;;
59930;SDS011;45790;51.538;6.736;2024-02-16T10:50:04;7.95;;;3.13;;
59930;SDS011;45790;51.538;6.736;2024-02-16T10:52:29;8.18;;;2.50;;
59930;SDS011;45790;51.538;6.736;2024-02-16T10:54:55;7.53;;;2.63;;
59930;SDS011;45790;51.538;6.736;2024-02-16T10:57:23;6.20;;;2.70;;
59930;SDS011;45790;51.538;6.736;2024-02-16T10:59:49;7.88;;;2.65;;
59930;SDS011;45790;51.538;6.736;2024-02-16T11:02:17;7.25;;;2.50;;
59930;SDS011;45790;51.538;6.736;2024-02-16T11:04:45;8.65;;;2.70;;
59930;SDS011;45790;51.538;6.736;2024-02-16T11:07:16;6.00;;;2.65;;
59930;SDS011;45790;51.538;6.736;2024-02-16T11:09:42;8.30;;;2.83;;
59930;SDS011;45790;51.538;6.736;2024-02-16T11:12:08;8.15;;;3.08;;
59930;SDS011;45790;51.538;6.736;2024-02-16T11:14:40;6.22;;;2.75;;
59930;SDS011;45790;51.538;6.736;2024-02-16T11:17:12;8.55;;;2.38;;
59930;SDS011;45790;51.538;6.736;2024-02-16T11:19:41;8.43;;;2.78;;
59930;SDS011;45790;51.538;6.736;2024-02-16T11:22:07;6.07;;;2.53;;
59930;SDS011;45790;51.538;6.736;2024-02-16T11:24:33;9.32;;;2.90;;
59930;SDS011;45790;51.538;6.736;2024-02-16T11:27:02;9.20;;;2.97;;
59930;SDS011;45790;51.538;6.736;2024-02-16T11:29:32;6.75;;;2.80;;
59930;SDS011;45790;51.538;6.736;2024-02-16T11:31:58;6.63;;;2.85;;
59930;SDS011;45790;51.538;6.736;2024-02-16T11:34:25;7.32;;;2.85;;
59930;SDS011;45790;51.538;6.736;2024-02-16T11:36:54;7.32;;;2.88;;
59930;SDS011;45790;51.538;6.736;2024-02-16T11:39:20;8.68;;;3.15;;
59930;SDS011;45790;51.538;6.736;2024-02-16T11:41:45;9.93;;;3.00;;
59930;SDS011;45790;51.538;6.736;2024-02-16T11:44:12;7.70;;;3.08;;
59930;SDS011;45790;51.538;6.736;2024-02-16T11:46:38;8.63;;;3.30;;
59930;SDS011;45790;51.538;6.736;2024-02-16T11:49:04;8.38;;;3.05;;
59930;SDS011;45790;51.538;6.736;2024-02-16T11:51:30;7.78;;;3.13;;
59930;SDS011;45790;51.538;6.736;2024-02-16T11:53:55;8.75;;;3.22;;
59930;SDS011;45790;51.538;6.736;2024-02-16T11:56:22;12.52;;;3.22;;
59930;SDS011;45790;51.538;6.736;2024-02-16T11:58:49;10.43;;;3.20;;
59930;SDS011;45790;51.538;6.736;2024-02-16T12:01:14;9.43;;;3.25;;
59930;SDS011;45790;51.538;6.736;2024-02-16T12:03:40;8.32;;;3.10;;
59930;SDS011;45790;51.538;6.736;2024-02-16T12:06:06;7.05;;;3.15;;
59930;SDS011;45790;51.538;6.736;2024-02-16T12:08:32;10.55;;;3.28;;
59930;SDS011;45790;51.538;6.736;2024-02-16T12:10:57;6.70;;;3.20;;
59930;SDS011;45790;51.538;6.736;2024-02-16T12:13:22;8.82;;;3.17;;
59930;SDS011;45790;51.538;6.736;2024-02-16T12:15:48;13.05;;;3.25;;
59930;SDS011;45790;51.538;6.736;2024-02-16T12:20:55;9.98;;;3.72;;
59930;SDS011;45790;51.538;6.736;2024-02-16T12:23:21;7.50;;;2.70;;
59930;SDS011;45790;51.538;6.736;2024-02-16T12:25:46;8.73;;;3.47;;
59930;SDS011;45790;51.538;6.736;2024-02-16T12:28:11;10.00;;;3.57;;
59930;SDS011;45790;51.538;6.736;2024-02-16T12:30:36;7.30;;;3.30;;
59930;SDS011;45790;51.538;6.736;2024-02-16T12:33:02;11.18;;;3.60;;
59930;SDS011;45790;51.538;6.736;2024-02-16T12:35:27;11.40;;;3.30;;
59930;SDS011;45790;51.538;6.736;2024-02-16T12:37:53;12.27;;;4.05;;
59930;SDS011;45790;51.538;6.736;2024-02-16T12:40:18;11.93;;;3.73;;
59930;SDS011;45790;51.538;6.736;2024-02-16T12:42:43;10.73;;;3.80;;
59930;SDS011;45790;51.538;6.736;2024-02-16T12:45:09;13.00;;;3.85;;
59930;SDS011;45790;51.538;6.736;2024-02-16T12:47:35;8.07;;;3.80;;
59930;SDS011;45790;51.538;6.736;2024-02-16T12:50:00;8.07;;;3.88;;
59930;SDS011;45790;51.538;6.736;2024-02-16T12:52:26;11.55;;;3.78;;
59930;SDS011;45790;51.538;6.736;2024-02-16T12:54:52;12.27;;;3.90;;
59930;SDS011;45790;51.538;6.736;2024-02-16T12:57:17;9.82;;;3.25;;
59930;SDS011;45790;51.538;6.736;2024-02-16T12:59:43;10.48;;;3.90;;
59930;SDS011;45790;51.538;6.736;2024-02-16T13:02:08;12.80;;;4.13;;
59930;SDS011;45790;51.538;6.736;2024-02-16T13:04:33;11.45;;;4.20;;
59930;SDS011;45790;51.538;6.736;2024-02-16T13:06:58;8.97;;;3.90;;
59930;SDS011;45790;51.538;6.736;2024-02-16T13:09:24;9.83;;;4.03;;
59930;SDS011;45790;51.538;6.736;2024-02-16T13:11:49;11.27;;;4.37;;
59930;SDS011;45790;51.538;6.736;2024-02-16T13:14:19;9.93;;;4.40;;
59930;SDS011;45790;51.538;6.736;2024-02-16T13:16:44;8.35;;;4.50;;
59930;SDS011;45790;51.538;6.736;2024-02-16T13:19:09;13.37;;;4.57;;
59930;SDS011;45790;51.538;6.736;2024-02-16T13:21:34;11.70;;;4.13;;
59930;SDS011;45790;51.538;6.736;2024-02-16T13:24:00;9.45;;;4.53;;
59930;SDS011;45790;51.538;6.736;2024-02-16T13:26:25;14.30;;;4.90;;
59930;SDS011;45790;51.538;6.736;2024-02-16T13:28:50;14.57;;;4.83;;
59930;SDS011;45790;51.538;6.736;2024-02-16T13:31:15;10.20;;;4.70;;
59930;SDS011;45790;51.538;6.736;2024-02-16T13:33:40;10.18;;;5.20;;
59930;SDS011;45790;51.538;6.736;2024-02-16T13:36:06;10.80;;;5.20;;
59930;SDS011;45790;51.538;6.736;2024-02-16T13:38:31;11.50;;;5.35;;
59930;SDS011;45790;51.538;6.736;2024-02-16T13:40:56;10.75;;;5.45;;
59930;SDS011;45790;51.538;6.736;2024-02-16T13:43:21;10.75;;;5.68;;
59930;SDS011;45790;51.538;6.736;2024-02-16T13:45:51;13.10;;;6.15;;
59930;SDS011;45790;51.538;6.736;2024-02-16T13:48:16;11.57;;;5.30;;
59930;SDS011;45790;51.538;6.736;2024-02-16T13:50:48;13.75;;;5.35;;
59930;SDS011;45790;51.538;6.736;2024-02-16T13:53:14;9.60;;;5.45;;
59930;SDS011;45790;51.538;6.736;2024-02-16T13:55:39;11.55;;;5.63;;
59930;SDS011;45790;51.538;6.736;2024-02-16T13:58:04;10.55;;;5.35;;
59930;SDS011;45790;51.538;6.736;2024-02-16T14:00:29;11.27;;;6.05;;
59930;SDS011;45790;51.538;6.736;2024-02-16T14:02:55;11.90;;;5.90;;
59930;SDS011;45790;51.538;6.736;2024-02-16T14:05:20;11.02;;;6.03;;
59930;SDS011;45790;51.538;6.736;2024-02-16T14:07:47;11.32;;;5.95;;
59930;SDS011;45790;51.538;6.736;2024-02-16T14:10:13;11.63;;;5.50;;
59930;SDS011;45790;51.538;6.736;2024-02-16T14:12:38;7.72;;;4.95;;
59930;SDS011;45790;51.538;6.736;2024-02-16T14:15:04;11.67;;;5.00;;
59930;SDS011;45790;51.538;6.736;2024-02-16T14:17:29;9.10;;;5.35;;
59930;SDS011;45790;51.538;6.736;2024-02-16T14:19:54;10.03;;;4.90;;
59930;SDS011;45790;51.538;6.736;2024-02-16T14:22:19;10.90;;;4.83;;
59930;SDS011;45790;51.538;6.736;2024-02-16T14:24:44;10.37;;;4.63;;
59930;SDS011;45790;51.538;6.736;2024-02-16T14:27:10;8.57;;;4.40;;
59930;SDS011;45790;51.538;6.736;2024-02-16T14:29:35;8.50;;;5.07;;
59930;SDS011;45790;51.538;6.736;2024-02-16T14:32:00;8.47;;;4.23;;
59930;SDS011;45790;51.538;6.736;2024-02-16T14:34:25;8.38;;;4.85;;
59930;SDS011;45790;51.538;6.736;2024-02-16T14:36:50;5.72;;;4.00;;